sensor_id;sensor_type;location;lat;lon;timestamp;P1;durP1;ratioP1;P2;durP2;ratioP2
5052;SDS011;2545;50.892;5.740;2023-05-29T00:02:23;10.53;;;4.77;;
5052;SDS011;2545;50.892;5.740;2023-05-29T00:04:48;12.70;;;4.57;;
5052;SDS011;2545;50.892;5.740;2023-05-29T00:07:13;9.93;;;5.50;;
5052;SDS011;2545;50.892;5.740;2023-05-29T00:09:38;10.53;;;4.97;;
5052;SDS011;2545;50.892;5.740;2023-05-29T00:12:04;12.00;;;5.00;;
5052;SDS011;2545;50.892;5.740;2023-05-29T00:14:30;13.87;;;5.13;;
5052;SDS011;2545;50.892;5.740;2023-05-29T00:16:56;12.93;;;5.00;;
5052;SDS011;2545;50.892;5.740;2023-05-29T00:19:21;18.03;;;5.70;;
5052;SDS011;2545;50.892;5.740;2023-05-29T00:21:47;16.30;;;5.70;;
5052;SDS011;2545;50.892;5.740;2023-05-29T00:24:14;13.50;;;4.63;;
5052;SDS011;2545;50.892;5.740;2023-05-29T00:26:40;14.70;;;4.73;;
5052;SDS011;2545;50.892;5.740;2023-05-29T00:29:05;13.17;;;5.50;;
5052;SDS011;2545;50.892;5.740;2023-05-29T00:31:31;13.80;;;5.03;;
5052;SDS011;2545;50.892;5.740;2023-05-29T00:33:56;9.93;;;4.63;;
5052;SDS011;2545;50.892;5.740;2023-05-29T00:36:22;10.27;;;5.10;;
5052;SDS011;2545;50.892;5.740;2023-05-29T00:38:48;12.03;;;5.30;;
5052;SDS011;2545;50.892;5.740;2023-05-29T00:41:14;9.53;;;4.83;;
5052;SDS011;2545;50.892;5.740;2023-05-29T00:43:40;8.90;;;5.00;;
5052;SDS011;2545;50.892;5.740;2023-05-29T00:46:06;8.33;;;5.00;;
5052;SDS011;2545;50.892;5.740;2023-05-29T00:48:32;9.87;;;4.50;;
5052;SDS011;2545;50.892;5.740;2023-05-29T00:50:57;8.80;;;5.50;;
5052;SDS011;2545;50.892;5.740;2023-05-29T00:53:23;12.90;;;5.90;;
5052;SDS011;2545;50.892;5.740;2023-05-29T00:55:48;16.80;;;5.87;;
5052;SDS011;2545;50.892;5.740;2023-05-29T00:58:14;15.43;;;5.60;;
5052;SDS011;2545;50.892;5.740;2023-05-29T01:00:40;12.17;;;5.00;;
5052;SDS011;2545;50.892;5.740;2023-05-29T01:03:06;7.40;;;4.93;;
5052;SDS011;2545;50.892;5.740;2023-05-29T01:05:33;17.53;;;5.53;;
5052;SDS011;2545;50.892;5.740;2023-05-29T01:07:59;14.57;;;5.30;;
5052;SDS011;2545;50.892;5.740;2023-05-29T01:10:25;15.87;;;5.87;;
5052;SDS011;2545;50.892;5.740;2023-05-29T01:12:59;15.00;;;6.00;;
5052;SDS011;2545;50.892;5.740;2023-05-29T01:15:41;15.30;;;5.23;;
5052;SDS011;2545;50.892;5.740;2023-05-29T01:18:12;15.73;;;6.20;;
5052;SDS011;2545;50.892;5.740;2023-05-29T01:21:01;10.67;;;6.37;;
5052;SDS011;2545;50.892;5.740;2023-05-29T01:29:14;18.53;;;8.50;;
5052;SDS011;2545;50.892;5.740;2023-05-29T01:31:42;14.90;;;6.17;;
5052;SDS011;2545;50.892;5.740;2023-05-29T01:34:10;15.03;;;6.50;;
5052;SDS011;2545;50.892;5.740;2023-05-29T01:36:36;11.07;;;5.87;;
5052;SDS011;2545;50.892;5.740;2023-05-29T01:39:02;16.13;;;7.03;;
5052;SDS011;2545;50.892;5.740;2023-05-29T01:41:28;12.27;;;7.70;;
5052;SDS011;2545;50.892;5.740;2023-05-29T01:43:54;18.03;;;7.10;;
5052;SDS011;2545;50.892;5.740;2023-05-29T01:46:22;13.50;;;6.70;;
5052;SDS011;2545;50.892;5.740;2023-05-29T01:48:50;16.47;;;7.50;;
5052;SDS011;2545;50.892;5.740;2023-05-29T01:51:16;10.17;;;6.50;;
5052;SDS011;2545;50.892;5.740;2023-05-29T01:53:41;17.53;;;6.90;;
5052;SDS011;2545;50.892;5.740;2023-05-29T01:56:07;13.60;;;7.03;;
5052;SDS011;2545;50.892;5.740;2023-05-29T01:58:34;15.73;;;7.37;;
5052;SDS011;2545;50.892;5.740;2023-05-29T02:01:01;9.27;;;6.50;;
5052;SDS011;2545;50.892;5.740;2023-05-29T02:03:28;24.13;;;7.77;;
5052;SDS011;2545;50.892;5.740;2023-05-29T02:05:54;15.80;;;7.20;;
5052;SDS011;2545;50.892;5.740;2023-05-29T02:08:21;15.00;;;6.73;;
5052;SDS011;2545;50.892;5.740;2023-05-29T02:10:46;16.30;;;7.83;;
5052;SDS011;2545;50.892;5.740;2023-05-29T02:13:11;12.27;;;7.40;;
5052;SDS011;2545;50.892;5.740;2023-05-29T02:15:37;14.47;;;6.90;;
5052;SDS011;2545;50.892;5.740;2023-05-29T02:18:02;14.50;;;7.43;;
5052;SDS011;2545;50.892;5.740;2023-05-29T02:20:27;13.20;;;6.90;;
5052;SDS011;2545;50.892;5.740;2023-05-29T02:22:53;13.83;;;6.90;;
5052;SDS011;2545;50.892;5.740;2023-05-29T02:25:18;13.37;;;7.70;;
5052;SDS011;2545;50.892;5.740;2023-05-29T02:27:44;18.00;;;7.37;;
5052;SDS011;2545;50.892;5.740;2023-05-29T02:30:09;17.90;;;7.77;;
5052;SDS011;2545;50.892;5.740;2023-05-29T02:32:35;13.53;;;7.47;;
5052;SDS011;2545;50.892;5.740;2023-05-29T02:35:02;14.97;;;6.80;;
5052;SDS011;2545;50.892;5.740;2023-05-29T02:37:28;10.53;;;7.17;;
5052;SDS011;2545;50.892;5.740;2023-05-29T02:39:53;11.93;;;7.77;;
5052;SDS011;2545;50.892;5.740;2023-05-29T02:42:18;12.83;;;8.53;;
5052;SDS011;2545;50.892;5.740;2023-05-29T02:44:44;16.67;;;6.93;;
5052;SDS011;2545;50.892;5.740;2023-05-29T02:47:09;15.93;;;8.17;;
5052;SDS011;2545;50.892;5.740;2023-05-29T02:49:34;14.40;;;8.10;;
5052;SDS011;2545;50.892;5.740;2023-05-29T02:52:00;17.00;;;8.30;;
5052;SDS011;2545;50.892;5.740;2023-05-29T02:54:25;22.17;;;9.70;;
5052;SDS011;2545;50.892;5.740;2023-05-29T02:56:51;15.43;;;7.80;;
5052;SDS011;2545;50.892;5.740;2023-05-29T02:59:17;13.20;;;7.77;;
5052;SDS011;2545;50.892;5.740;2023-05-29T03:01:42;16.33;;;7.67;;
5052;SDS011;2545;50.892;5.740;2023-05-29T03:04:09;19.03;;;7.90;;
5052;SDS011;2545;50.892;5.740;2023-05-29T03:06:35;18.63;;;7.73;;
5052;SDS011;2545;50.892;5.740;2023-05-29T03:09:01;22.77;;;7.10;;
5052;SDS011;2545;50.892;5.740;2023-05-29T03:11:27;21.90;;;7.70;;
5052;SDS011;2545;50.892;5.740;2023-05-29T03:13:54;15.00;;;6.90;;
5052;SDS011;2545;50.892;5.740;2023-05-29T03:16:19;16.30;;;7.10;;
5052;SDS011;2545;50.892;5.740;2023-05-29T03:18:46;19.27;;;6.53;;
5052;SDS011;2545;50.892;5.740;2023-05-29T03:21:11;11.63;;;6.33;;
5052;SDS011;2545;50.892;5.740;2023-05-29T03:23:36;11.73;;;6.47;;
5052;SDS011;2545;50.892;5.740;2023-05-29T03:26:02;18.63;;;6.67;;
5052;SDS011;2545;50.892;5.740;2023-05-29T03:28:28;14.67;;;6.23;;
5052;SDS011;2545;50.892;5.740;2023-05-29T03:30:54;19.47;;;6.50;;
5052;SDS011;2545;50.892;5.740;2023-05-29T03:33:19;14.20;;;7.07;;
5052;SDS011;2545;50.892;5.740;2023-05-29T03:35:44;13.10;;;6.87;;
5052;SDS011;2545;50.892;5.740;2023-05-29T03:38:10;18.13;;;7.07;;
5052;SDS011;2545;50.892;5.740;2023-05-29T03:40:35;18.90;;;5.57;;
5052;SDS011;2545;50.892;5.740;2023-05-29T03:43:00;13.97;;;6.30;;
5052;SDS011;2545;50.892;5.740;2023-05-29T03:45:26;13.63;;;6.17;;
5052;SDS011;2545;50.892;5.740;2023-05-29T03:47:51;13.03;;;5.33;;
5052;SDS011;2545;50.892;5.740;2023-05-29T03:50:16;10.37;;;5.57;;
5052;SDS011;2545;50.892;5.740;2023-05-29T03:52:42;19.60;;;7.20;;
5052;SDS011;2545;50.892;5.740;2023-05-29T03:55:10;21.53;;;6.13;;
5052;SDS011;2545;50.892;5.740;2023-05-29T03:57:38;20.30;;;5.77;;
5052;SDS011;2545;50.892;5.740;2023-05-29T04:00:06;12.03;;;5.00;;
5052;SDS011;2545;50.892;5.740;2023-05-29T04:02:32;21.53;;;6.10;;
5052;SDS011;2545;50.892;5.740;2023-05-29T04:04:58;14.07;;;5.63;;
5052;SDS011;2545;50.892;5.740;2023-05-29T04:07:23;14.23;;;5.70;;
5052;SDS011;2545;50.892;5.740;2023-05-29T04:09:49;14.93;;;5.70;;
5052;SDS011;2545;50.892;5.740;2023-05-29T04:12:14;12.43;;;5.70;;
5052;SDS011;2545;50.892;5.740;2023-05-29T04:14:40;11.93;;;5.40;;
5052;SDS011;2545;50.892;5.740;2023-05-29T04:17:06;12.03;;;5.80;;
5052;SDS011;2545;50.892;5.740;2023-05-29T04:19:31;15.73;;;5.83;;
5052;SDS011;2545;50.892;5.740;2023-05-29T04:21:56;12.77;;;5.30;;
5052;SDS011;2545;50.892;5.740;2023-05-29T04:24:22;11.70;;;4.83;;
5052;SDS011;2545;50.892;5.740;2023-05-29T04:26:49;10.37;;;5.07;;
5052;SDS011;2545;50.892;5.740;2023-05-29T04:29:16;19.03;;;5.77;;
5052;SDS011;2545;50.892;5.740;2023-05-29T04:31:41;16.90;;;5.30;;
5052;SDS011;2545;50.892;5.740;2023-05-29T04:34:07;12.60;;;4.90;;
5052;SDS011;2545;50.892;5.740;2023-05-29T04:36:33;14.80;;;4.40;;
5052;SDS011;2545;50.892;5.740;2023-05-29T04:39:03;17.93;;;5.00;;
5052;SDS011;2545;50.892;5.740;2023-05-29T04:41:29;17.60;;;5.07;;
5052;SDS011;2545;50.892;5.740;2023-05-29T04:43:56;13.53;;;5.33;;
5052;SDS011;2545;50.892;5.740;2023-05-29T04:46:22;14.97;;;4.70;;
5052;SDS011;2545;50.892;5.740;2023-05-29T04:48:49;16.03;;;4.90;;
5052;SDS011;2545;50.892;5.740;2023-05-29T04:51:18;13.63;;;5.10;;
5052;SDS011;2545;50.892;5.740;2023-05-29T04:53:45;14.37;;;4.90;;
5052;SDS011;2545;50.892;5.740;2023-05-29T04:56:11;12.37;;;4.60;;
5052;SDS011;2545;50.892;5.740;2023-05-29T04:58:37;12.50;;;4.50;;
5052;SDS011;2545;50.892;5.740;2023-05-29T05:01:02;18.27;;;4.70;;
5052;SDS011;2545;50.892;5.740;2023-05-29T05:03:28;11.30;;;4.10;;
5052;SDS011;2545;50.892;5.740;2023-05-29T05:05:55;17.10;;;4.40;;
5052;SDS011;2545;50.892;5.740;2023-05-29T05:08:21;13.47;;;4.13;;
5052;SDS011;2545;50.892;5.740;2023-05-29T05:10:46;11.13;;;4.13;;
5052;SDS011;2545;50.892;5.740;2023-05-29T05:13:13;17.27;;;4.40;;
5052;SDS011;2545;50.892;5.740;2023-05-29T05:15:38;12.67;;;4.30;;
5052;SDS011;2545;50.892;5.740;2023-05-29T05:18:03;16.93;;;4.70;;
5052;SDS011;2545;50.892;5.740;2023-05-29T05:20:29;17.97;;;4.60;;
5052;SDS011;2545;50.892;5.740;2023-05-29T05:22:54;24.27;;;6.60;;
5052;SDS011;2545;50.892;5.740;2023-05-29T05:25:20;21.00;;;4.77;;
5052;SDS011;2545;50.892;5.740;2023-05-29T05:27:46;14.57;;;4.53;;
5052;SDS011;2545;50.892;5.740;2023-05-29T05:30:11;16.17;;;4.37;;
5052;SDS011;2545;50.892;5.740;2023-05-29T05:32:37;14.50;;;4.70;;
5052;SDS011;2545;50.892;5.740;2023-05-29T05:35:02;14.07;;;4.07;;
5052;SDS011;2545;50.892;5.740;2023-05-29T05:37:28;15.50;;;4.10;;
5052;SDS011;2545;50.892;5.740;2023-05-29T05:39:53;24.53;;;4.57;;
5052;SDS011;2545;50.892;5.740;2023-05-29T05:42:19;13.60;;;4.30;;
5052;SDS011;2545;50.892;5.740;2023-05-29T05:44:45;15.10;;;4.57;;
5052;SDS011;2545;50.892;5.740;2023-05-29T05:47:10;14.80;;;4.70;;
5052;SDS011;2545;50.892;5.740;2023-05-29T05:49:35;19.03;;;6.00;;
5052;SDS011;2545;50.892;5.740;2023-05-29T05:52:01;23.30;;;5.27;;
5052;SDS011;2545;50.892;5.740;2023-05-29T05:54:26;23.77;;;4.50;;
5052;SDS011;2545;50.892;5.740;2023-05-29T05:56:51;16.57;;;5.73;;
5052;SDS011;2545;50.892;5.740;2023-05-29T05:59:17;16.93;;;4.30;;
5052;SDS011;2545;50.892;5.740;2023-05-29T06:01:42;15.00;;;4.70;;
5052;SDS011;2545;50.892;5.740;2023-05-29T06:04:07;15.50;;;5.30;;
5052;SDS011;2545;50.892;5.740;2023-05-29T06:06:33;15.97;;;4.73;;
5052;SDS011;2545;50.892;5.740;2023-05-29T06:08:59;21.50;;;5.33;;
5052;SDS011;2545;50.892;5.740;2023-05-29T06:11:24;21.17;;;5.17;;
5052;SDS011;2545;50.892;5.740;2023-05-29T06:13:50;16.43;;;3.83;;
5052;SDS011;2545;50.892;5.740;2023-05-29T06:16:17;18.83;;;4.97;;
5052;SDS011;2545;50.892;5.740;2023-05-29T06:18:43;11.07;;;4.70;;
5052;SDS011;2545;50.892;5.740;2023-05-29T06:21:09;20.43;;;5.23;;
5052;SDS011;2545;50.892;5.740;2023-05-29T06:23:34;21.37;;;5.60;;
5052;SDS011;2545;50.892;5.740;2023-05-29T06:26:01;15.20;;;3.67;;
5052;SDS011;2545;50.892;5.740;2023-05-29T06:28:27;14.97;;;4.50;;
5052;SDS011;2545;50.892;5.740;2023-05-29T06:30:52;12.27;;;3.60;;
5052;SDS011;2545;50.892;5.740;2023-05-29T06:33:17;19.17;;;5.00;;
5052;SDS011;2545;50.892;5.740;2023-05-29T06:35:42;11.57;;;4.23;;
5052;SDS011;2545;50.892;5.740;2023-05-29T06:38:08;22.20;;;5.33;;
5052;SDS011;2545;50.892;5.740;2023-05-29T06:40:33;29.47;;;5.40;;
5052;SDS011;2545;50.892;5.740;2023-05-29T06:42:59;16.93;;;3.77;;
5052;SDS011;2545;50.892;5.740;2023-05-29T06:45:25;21.83;;;5.20;;
5052;SDS011;2545;50.892;5.740;2023-05-29T06:47:50;21.07;;;4.00;;
5052;SDS011;2545;50.892;5.740;2023-05-29T06:50:16;19.33;;;4.07;;
5052;SDS011;2545;50.892;5.740;2023-05-29T06:52:41;19.90;;;4.90;;
5052;SDS011;2545;50.892;5.740;2023-05-29T06:55:07;16.53;;;3.67;;
5052;SDS011;2545;50.892;5.740;2023-05-29T06:57:32;16.13;;;4.40;;
5052;SDS011;2545;50.892;5.740;2023-05-29T06:59:57;17.20;;;4.80;;
5052;SDS011;2545;50.892;5.740;2023-05-29T07:02:23;18.80;;;5.20;;
5052;SDS011;2545;50.892;5.740;2023-05-29T07:04:48;9.90;;;4.40;;
5052;SDS011;2545;50.892;5.740;2023-05-29T07:07:13;18.60;;;4.33;;
5052;SDS011;2545;50.892;5.740;2023-05-29T07:09:39;16.67;;;3.90;;
5052;SDS011;2545;50.892;5.740;2023-05-29T07:12:04;22.87;;;4.83;;
5052;SDS011;2545;50.892;5.740;2023-05-29T07:14:30;24.60;;;4.97;;
5052;SDS011;2545;50.892;5.740;2023-05-29T07:16:56;14.70;;;4.93;;
5052;SDS011;2545;50.892;5.740;2023-05-29T07:19:21;20.83;;;4.20;;
5052;SDS011;2545;50.892;5.740;2023-05-29T07:21:46;20.40;;;4.80;;
5052;SDS011;2545;50.892;5.740;2023-05-29T07:24:12;14.90;;;4.53;;
5052;SDS011;2545;50.892;5.740;2023-05-29T07:26:37;13.63;;;4.40;;
5052;SDS011;2545;50.892;5.740;2023-05-29T07:29:02;18.63;;;4.77;;
5052;SDS011;2545;50.892;5.740;2023-05-29T07:31:28;18.00;;;4.80;;
5052;SDS011;2545;50.892;5.740;2023-05-29T07:33:53;23.67;;;4.90;;
5052;SDS011;2545;50.892;5.740;2023-05-29T07:36:19;15.60;;;4.37;;
5052;SDS011;2545;50.892;5.740;2023-05-29T07:38:44;14.73;;;4.20;;
5052;SDS011;2545;50.892;5.740;2023-05-29T07:41:10;20.80;;;5.30;;
5052;SDS011;2545;50.892;5.740;2023-05-29T07:43:35;17.40;;;4.93;;
5052;SDS011;2545;50.892;5.740;2023-05-29T07:46:00;11.40;;;4.33;;
5052;SDS011;2545;50.892;5.740;2023-05-29T07:48:26;31.27;;;5.87;;
5052;SDS011;2545;50.892;5.740;2023-05-29T07:50:51;14.27;;;4.23;;
5052;SDS011;2545;50.892;5.740;2023-05-29T07:53:17;16.93;;;4.83;;
5052;SDS011;2545;50.892;5.740;2023-05-29T07:55:42;12.50;;;4.40;;
5052;SDS011;2545;50.892;5.740;2023-05-29T07:58:08;18.83;;;5.07;;
5052;SDS011;2545;50.892;5.740;2023-05-29T08:00:36;14.90;;;4.40;;
5052;SDS011;2545;50.892;5.740;2023-05-29T08:03:02;18.13;;;4.90;;
5052;SDS011;2545;50.892;5.740;2023-05-29T08:05:28;23.20;;;5.07;;
5052;SDS011;2545;50.892;5.740;2023-05-29T08:07:54;20.13;;;5.20;;
5052;SDS011;2545;50.892;5.740;2023-05-29T08:10:20;12.80;;;4.50;;
5052;SDS011;2545;50.892;5.740;2023-05-29T08:12:45;21.30;;;5.37;;
5052;SDS011;2545;50.892;5.740;2023-05-29T08:15:11;14.80;;;4.57;;
5052;SDS011;2545;50.892;5.740;2023-05-29T08:17:37;14.70;;;4.30;;
5052;SDS011;2545;50.892;5.740;2023-05-29T08:20:02;16.83;;;4.43;;
5052;SDS011;2545;50.892;5.740;2023-05-29T08:22:30;19.53;;;4.80;;
5052;SDS011;2545;50.892;5.740;2023-05-29T08:24:58;17.80;;;4.90;;
5052;SDS011;2545;50.892;5.740;2023-05-29T08:27:24;20.73;;;5.23;;
5052;SDS011;2545;50.892;5.740;2023-05-29T08:29:49;14.60;;;4.80;;
5052;SDS011;2545;50.892;5.740;2023-05-29T08:32:15;14.80;;;5.40;;
5052;SDS011;2545;50.892;5.740;2023-05-29T08:34:40;15.13;;;5.30;;
5052;SDS011;2545;50.892;5.740;2023-05-29T08:37:06;21.97;;;4.93;;
5052;SDS011;2545;50.892;5.740;2023-05-29T08:39:32;25.70;;;4.87;;
5052;SDS011;2545;50.892;5.740;2023-05-29T08:41:59;13.97;;;4.40;;
5052;SDS011;2545;50.892;5.740;2023-05-29T08:44:32;22.57;;;6.10;;
5052;SDS011;2545;50.892;5.740;2023-05-29T08:46:58;23.43;;;5.13;;
5052;SDS011;2545;50.892;5.740;2023-05-29T08:49:27;22.57;;;5.70;;
5052;SDS011;2545;50.892;5.740;2023-05-29T08:52:01;11.83;;;3.73;;
5052;SDS011;2545;50.892;5.740;2023-05-29T08:54:32;21.83;;;4.77;;
5052;SDS011;2545;50.892;5.740;2023-05-29T08:56:59;13.63;;;4.57;;
5052;SDS011;2545;50.892;5.740;2023-05-29T08:59:26;14.60;;;4.23;;
5052;SDS011;2545;50.892;5.740;2023-05-29T09:01:54;12.53;;;4.30;;
5052;SDS011;2545;50.892;5.740;2023-05-29T09:04:20;16.90;;;5.37;;
5052;SDS011;2545;50.892;5.740;2023-05-29T09:06:45;15.40;;;5.07;;
5052;SDS011;2545;50.892;5.740;2023-05-29T09:09:12;20.47;;;4.40;;
5052;SDS011;2545;50.892;5.740;2023-05-29T09:11:37;10.10;;;3.57;;
5052;SDS011;2545;50.892;5.740;2023-05-29T09:14:02;18.10;;;4.70;;
5052;SDS011;2545;50.892;5.740;2023-05-29T09:16:28;20.73;;;4.80;;
5052;SDS011;2545;50.892;5.740;2023-05-29T09:19:01;16.90;;;5.27;;
5052;SDS011;2545;50.892;5.740;2023-05-29T09:21:30;21.23;;;4.43;;
5052;SDS011;2545;50.892;5.740;2023-05-29T09:24:07;14.50;;;4.20;;
5052;SDS011;2545;50.892;5.740;2023-05-29T09:26:32;14.03;;;4.50;;
5052;SDS011;2545;50.892;5.740;2023-05-29T09:28:58;14.40;;;4.20;;
5052;SDS011;2545;50.892;5.740;2023-05-29T09:31:23;15.87;;;5.10;;
5052;SDS011;2545;50.892;5.740;2023-05-29T09:33:49;15.53;;;5.30;;
5052;SDS011;2545;50.892;5.740;2023-05-29T09:36:21;19.10;;;4.80;;
5052;SDS011;2545;50.892;5.740;2023-05-29T09:38:47;13.80;;;4.10;;
5052;SDS011;2545;50.892;5.740;2023-05-29T09:41:13;13.47;;;4.00;;
5052;SDS011;2545;50.892;5.740;2023-05-29T09:43:38;14.13;;;4.97;;
5052;SDS011;2545;50.892;5.740;2023-05-29T09:46:05;17.10;;;4.30;;
5052;SDS011;2545;50.892;5.740;2023-05-29T09:48:34;14.03;;;4.43;;
5052;SDS011;2545;50.892;5.740;2023-05-29T09:51:00;17.07;;;4.87;;
5052;SDS011;2545;50.892;5.740;2023-05-29T09:53:27;14.60;;;4.40;;
5052;SDS011;2545;50.892;5.740;2023-05-29T09:55:56;16.03;;;5.03;;
5052;SDS011;2545;50.892;5.740;2023-05-29T09:58:24;10.57;;;4.30;;
5052;SDS011;2545;50.892;5.740;2023-05-29T10:00:50;16.90;;;4.27;;
5052;SDS011;2545;50.892;5.740;2023-05-29T10:03:17;20.77;;;5.03;;
5052;SDS011;2545;50.892;5.740;2023-05-29T10:05:53;11.73;;;4.53;;
5052;SDS011;2545;50.892;5.740;2023-05-29T10:08:23;15.87;;;5.00;;
5052;SDS011;2545;50.892;5.740;2023-05-29T10:11:01;10.23;;;3.83;;
5052;SDS011;2545;50.892;5.740;2023-05-29T10:13:34;20.83;;;4.50;;
5052;SDS011;2545;50.892;5.740;2023-05-29T10:16:03;13.93;;;4.90;;
5052;SDS011;2545;50.892;5.740;2023-05-29T10:18:38;19.20;;;5.60;;
5052;SDS011;2545;50.892;5.740;2023-05-29T10:21:05;19.13;;;4.60;;
5052;SDS011;2545;50.892;5.740;2023-05-29T10:23:32;12.53;;;3.93;;
5052;SDS011;2545;50.892;5.740;2023-05-29T10:26:10;19.70;;;4.87;;
5052;SDS011;2545;50.892;5.740;2023-05-29T10:28:40;13.90;;;4.30;;
5052;SDS011;2545;50.892;5.740;2023-05-29T10:31:15;16.07;;;6.10;;
5052;SDS011;2545;50.892;5.740;2023-05-29T10:33:48;14.30;;;4.23;;
5052;SDS011;2545;50.892;5.740;2023-05-29T10:36:43;10.83;;;3.93;;
5052;SDS011;2545;50.892;5.740;2023-05-29T10:39:14;15.53;;;4.20;;
5052;SDS011;2545;50.892;5.740;2023-05-29T10:41:40;10.73;;;4.50;;
5052;SDS011;2545;50.892;5.740;2023-05-29T10:44:50;13.20;;;4.67;;
5052;SDS011;2545;50.892;5.740;2023-05-29T10:47:01;25.70;;;5.33;;
5052;SDS011;2545;50.892;5.740;2023-05-29T10:49:28;19.47;;;4.57;;
5052;SDS011;2545;50.892;5.740;2023-05-29T10:51:54;11.03;;;3.93;;
5052;SDS011;2545;50.892;5.740;2023-05-29T10:54:21;12.20;;;4.73;;
5052;SDS011;2545;50.892;5.740;2023-05-29T10:56:51;11.90;;;5.10;;
5052;SDS011;2545;50.892;5.740;2023-05-29T10:59:20;11.50;;;4.63;;
5052;SDS011;2545;50.892;5.740;2023-05-29T11:01:45;24.57;;;4.63;;
5052;SDS011;2545;50.892;5.740;2023-05-29T11:06:42;12.80;;;4.20;;
5052;SDS011;2545;50.892;5.740;2023-05-29T11:17:30;11.73;;;4.20;;
5052;SDS011;2545;50.892;5.740;2023-05-29T11:20:20;11.40;;;4.60;;
5052;SDS011;2545;50.892;5.740;2023-05-29T11:22:56;15.60;;;4.80;;
5052;SDS011;2545;50.892;5.740;2023-05-29T11:25:33;13.00;;;4.33;;
5052;SDS011;2545;50.892;5.740;2023-05-29T11:27:59;10.30;;;3.63;;
5052;SDS011;2545;50.892;5.740;2023-05-29T11:30:25;9.90;;;4.13;;
5052;SDS011;2545;50.892;5.740;2023-05-29T11:32:51;13.70;;;4.03;;
5052;SDS011;2545;50.892;5.740;2023-05-29T11:35:17;13.33;;;3.97;;
5052;SDS011;2545;50.892;5.740;2023-05-29T11:37:46;8.40;;;3.60;;
5052;SDS011;2545;50.892;5.740;2023-05-29T11:40:12;10.60;;;3.73;;
5052;SDS011;2545;50.892;5.740;2023-05-29T11:42:43;15.20;;;3.70;;
5052;SDS011;2545;50.892;5.740;2023-05-29T11:45:12;15.30;;;3.90;;
5052;SDS011;2545;50.892;5.740;2023-05-29T11:48:02;18.13;;;4.10;;
5052;SDS011;2545;50.892;5.740;2023-05-29T11:50:30;9.70;;;3.70;;
5052;SDS011;2545;50.892;5.740;2023-05-29T11:52:57;8.00;;;3.20;;
5052;SDS011;2545;50.892;5.740;2023-05-29T11:55:24;13.40;;;4.20;;
5052;SDS011;2545;50.892;5.740;2023-05-29T11:57:50;10.93;;;4.07;;
5052;SDS011;2545;50.892;5.740;2023-05-29T12:00:20;11.03;;;3.47;;
5052;SDS011;2545;50.892;5.740;2023-05-29T12:02:47;12.57;;;3.47;;
5052;SDS011;2545;50.892;5.740;2023-05-29T12:05:13;8.70;;;3.27;;
5052;SDS011;2545;50.892;5.740;2023-05-29T12:07:50;8.57;;;3.47;;
5052;SDS011;2545;50.892;5.740;2023-05-29T12:10:18;12.87;;;3.23;;
5052;SDS011;2545;50.892;5.740;2023-05-29T12:12:48;11.67;;;3.63;;
5052;SDS011;2545;50.892;5.740;2023-05-29T12:15:15;10.70;;;3.90;;
5052;SDS011;2545;50.892;5.740;2023-05-29T12:17:41;6.30;;;2.80;;
5052;SDS011;2545;50.892;5.740;2023-05-29T12:20:07;11.20;;;3.40;;
5052;SDS011;2545;50.892;5.740;2023-05-29T12:22:37;10.73;;;3.63;;
5052;SDS011;2545;50.892;5.740;2023-05-29T12:25:06;7.40;;;3.57;;
5052;SDS011;2545;50.892;5.740;2023-05-29T12:27:33;12.13;;;4.10;;
5052;SDS011;2545;50.892;5.740;2023-05-29T12:30:07;18.40;;;4.23;;
5052;SDS011;2545;50.892;5.740;2023-05-29T12:32:45;7.70;;;3.60;;
5052;SDS011;2545;50.892;5.740;2023-05-29T12:37:47;9.37;;;3.10;;
5052;SDS011;2545;50.892;5.740;2023-05-29T12:40:22;10.13;;;3.38;;
5052;SDS011;2545;50.892;5.740;2023-05-29T12:45:22;8.18;;;3.60;;
5052;SDS011;2545;50.892;5.740;2023-05-29T12:47:53;10.57;;;3.47;;
5052;SDS011;2545;50.892;5.740;2023-05-29T12:50:23;7.78;;;3.22;;
5052;SDS011;2545;50.892;5.740;2023-05-29T12:53:09;10.60;;;3.53;;
5052;SDS011;2545;50.892;5.740;2023-05-29T12:55:38;10.32;;;3.67;;
5052;SDS011;2545;50.892;5.740;2023-05-29T12:58:04;8.03;;;3.13;;
5052;SDS011;2545;50.892;5.740;2023-05-29T13:00:31;6.57;;;3.13;;
5052;SDS011;2545;50.892;5.740;2023-05-29T13:02:58;14.30;;;3.80;;
5052;SDS011;2545;50.892;5.740;2023-05-29T13:05:23;7.73;;;3.13;;
5052;SDS011;2545;50.892;5.740;2023-05-29T13:07:51;17.40;;;3.80;;
5052;SDS011;2545;50.892;5.740;2023-05-29T13:10:20;9.63;;;3.20;;
5052;SDS011;2545;50.892;5.740;2023-05-29T13:12:48;7.73;;;3.37;;
5052;SDS011;2545;50.892;5.740;2023-05-29T13:15:21;8.00;;;3.07;;
5052;SDS011;2545;50.892;5.740;2023-05-29T13:17:48;8.90;;;3.53;;
5052;SDS011;2545;50.892;5.740;2023-05-29T13:20:13;8.90;;;3.60;;
5052;SDS011;2545;50.892;5.740;2023-05-29T13:22:40;12.83;;;4.47;;
5052;SDS011;2545;50.892;5.740;2023-05-29T13:25:08;9.37;;;3.47;;
5052;SDS011;2545;50.892;5.740;2023-05-29T13:27:35;12.50;;;4.07;;
5052;SDS011;2545;50.892;5.740;2023-05-29T13:30:05;8.73;;;3.50;;
5052;SDS011;2545;50.892;5.740;2023-05-29T13:32:31;10.47;;;3.60;;
5052;SDS011;2545;50.892;5.740;2023-05-29T13:34:56;7.63;;;3.20;;
5052;SDS011;2545;50.892;5.740;2023-05-29T13:37:22;7.53;;;3.67;;
5052;SDS011;2545;50.892;5.740;2023-05-29T13:39:48;13.70;;;3.87;;
5052;SDS011;2545;50.892;5.740;2023-05-29T13:42:13;12.10;;;3.47;;
5052;SDS011;2545;50.892;5.740;2023-05-29T13:44:39;14.37;;;4.30;;
5052;SDS011;2545;50.892;5.740;2023-05-29T13:47:07;10.23;;;3.47;;
5052;SDS011;2545;50.892;5.740;2023-05-29T13:49:33;14.23;;;3.70;;
5052;SDS011;2545;50.892;5.740;2023-05-29T13:51:59;9.03;;;3.70;;
5052;SDS011;2545;50.892;5.740;2023-05-29T13:54:24;7.23;;;3.63;;
5052;SDS011;2545;50.892;5.740;2023-05-29T13:56:52;10.00;;;3.70;;
5052;SDS011;2545;50.892;5.740;2023-05-29T13:59:17;19.33;;;3.60;;
5052;SDS011;2545;50.892;5.740;2023-05-29T14:01:43;16.87;;;3.63;;
5052;SDS011;2545;50.892;5.740;2023-05-29T14:04:09;10.60;;;3.33;;
5052;SDS011;2545;50.892;5.740;2023-05-29T14:06:38;13.10;;;3.10;;
5052;SDS011;2545;50.892;5.740;2023-05-29T14:09:06;14.23;;;4.43;;
5052;SDS011;2545;50.892;5.740;2023-05-29T14:11:39;11.83;;;3.30;;
5052;SDS011;2545;50.892;5.740;2023-05-29T14:14:05;18.40;;;5.10;;
5052;SDS011;2545;50.892;5.740;2023-05-29T14:16:33;13.87;;;3.50;;
5052;SDS011;2545;50.892;5.740;2023-05-29T14:18:59;12.00;;;4.07;;
5052;SDS011;2545;50.892;5.740;2023-05-29T14:21:26;13.30;;;3.60;;
5052;SDS011;2545;50.892;5.740;2023-05-29T14:23:51;7.57;;;3.40;;
5052;SDS011;2545;50.892;5.740;2023-05-29T14:26:17;6.93;;;3.27;;
5052;SDS011;2545;50.892;5.740;2023-05-29T14:28:45;10.20;;;3.90;;
5052;SDS011;2545;50.892;5.740;2023-05-29T14:31:11;10.17;;;3.50;;
5052;SDS011;2545;50.892;5.740;2023-05-29T14:33:37;9.20;;;3.83;;
5052;SDS011;2545;50.892;5.740;2023-05-29T14:36:03;10.70;;;3.70;;
5052;SDS011;2545;50.892;5.740;2023-05-29T14:38:29;9.77;;;3.20;;
5052;SDS011;2545;50.892;5.740;2023-05-29T14:40:54;9.87;;;3.20;;
5052;SDS011;2545;50.892;5.740;2023-05-29T14:43:20;10.87;;;3.43;;
5052;SDS011;2545;50.892;5.740;2023-05-29T14:45:46;9.17;;;3.53;;
5052;SDS011;2545;50.892;5.740;2023-05-29T14:48:11;10.43;;;3.67;;
5052;SDS011;2545;50.892;5.740;2023-05-29T14:50:40;11.23;;;3.20;;
5052;SDS011;2545;50.892;5.740;2023-05-29T14:53:05;9.80;;;3.30;;
5052;SDS011;2545;50.892;5.740;2023-05-29T14:55:31;6.47;;;3.27;;
5052;SDS011;2545;50.892;5.740;2023-05-29T14:58:02;10.53;;;4.20;;
5052;SDS011;2545;50.892;5.740;2023-05-29T15:00:33;9.60;;;3.30;;
5052;SDS011;2545;50.892;5.740;2023-05-29T15:02:59;20.67;;;3.53;;
5052;SDS011;2545;50.892;5.740;2023-05-29T15:05:26;11.43;;;3.10;;
5052;SDS011;2545;50.892;5.740;2023-05-29T15:07:52;10.70;;;3.27;;
5052;SDS011;2545;50.892;5.740;2023-05-29T15:10:22;21.50;;;2.70;;
5052;SDS011;2545;50.892;5.740;2023-05-29T15:12:51;11.30;;;3.20;;
5052;SDS011;2545;50.892;5.740;2023-05-29T15:15:28;10.27;;;3.03;;
5052;SDS011;2545;50.892;5.740;2023-05-29T15:18:02;9.60;;;3.47;;
5052;SDS011;2545;50.892;5.740;2023-05-29T15:20:31;13.33;;;3.60;;
5052;SDS011;2545;50.892;5.740;2023-05-29T15:22:57;5.10;;;2.83;;
5052;SDS011;2545;50.892;5.740;2023-05-29T15:25:22;14.43;;;3.70;;